sensor_id;sensor_type;location;lat;lon;timestamp;P1;durP1;ratioP1;P2;durP2;ratioP2
14778;SDS011;7481;53.750;10.570;2022-08-21T00:02:29;5.05;;;1.90;;
14778;SDS011;7481;53.750;10.570;2022-08-21T00:05:17;4.63;;;2.15;;
14778;SDS011;7481;53.750;10.570;2022-08-21T00:08:05;3.45;;;2.20;;
14778;SDS011;7481;53.750;10.570;2022-08-21T00:10:52;3.55;;;1.73;;
14778;SDS011;7481;53.750;10.570;2022-08-21T00:13:39;5.05;;;2.13;;
14778;SDS011;7481;53.750;10.570;2022-08-21T00:16:27;5.38;;;2.00;;
14778;SDS011;7481;53.750;10.570;2022-08-21T00:19:14;4.97;;;2.20;;
14778;SDS011;7481;53.750;10.570;2022-08-21T00:22:01;4.03;;;2.10;;
14778;SDS011;7481;53.750;10.570;2022-08-21T00:24:48;7.38;;;2.13;;
14778;SDS011;7481;53.750;10.570;2022-08-21T00:27:35;5.00;;;1.95;;
14778;SDS011;7481;53.750;10.570;2022-08-21T00:30:23;6.17;;;2.10;;
14778;SDS011;7481;53.750;10.570;2022-08-21T00:33:12;7.38;;;2.60;;
14778;SDS011;7481;53.750;10.570;2022-08-21T00:35:59;5.80;;;2.70;;
14778;SDS011;7481;53.750;10.570;2022-08-21T00:38:46;4.87;;;2.43;;
14778;SDS011;7481;53.750;10.570;2022-08-21T00:41:34;5.55;;;2.63;;
14778;SDS011;7481;53.750;10.570;2022-08-21T00:44:24;5.30;;;2.33;;
14778;SDS011;7481;53.750;10.570;2022-08-21T00:47:11;5.93;;;2.40;;
14778;SDS011;7481;53.750;10.570;2022-08-21T00:49:58;3.53;;;2.35;;
14778;SDS011;7481;53.750;10.570;2022-08-21T00:52:45;4.65;;;2.30;;
14778;SDS011;7481;53.750;10.570;2022-08-21T00:55:34;5.27;;;2.50;;
14778;SDS011;7481;53.750;10.570;2022-08-21T00:58:26;3.73;;;2.20;;
14778;SDS011;7481;53.750;10.570;2022-08-21T01:01:14;4.90;;;2.47;;
14778;SDS011;7481;53.750;10.570;2022-08-21T01:04:04;5.00;;;2.37;;
14778;SDS011;7481;53.750;10.570;2022-08-21T01:06:51;3.77;;;2.30;;
14778;SDS011;7481;53.750;10.570;2022-08-21T01:09:39;4.20;;;2.50;;
14778;SDS011;7481;53.750;10.570;2022-08-21T01:12:27;5.03;;;2.47;;
14778;SDS011;7481;53.750;10.570;2022-08-21T01:15:14;6.73;;;2.40;;
14778;SDS011;7481;53.750;10.570;2022-08-21T01:18:03;3.90;;;2.53;;
14778;SDS011;7481;53.750;10.570;2022-08-21T01:24:04;4.72;;;2.42;;
14778;SDS011;7481;53.750;10.570;2022-08-21T01:26:52;3.27;;;2.40;;
14778;SDS011;7481;53.750;10.570;2022-08-21T01:29:43;4.22;;;2.35;;
14778;SDS011;7481;53.750;10.570;2022-08-21T01:32:39;6.63;;;2.20;;
14778;SDS011;7481;53.750;10.570;2022-08-21T01:35:26;2.67;;;2.33;;
14778;SDS011;7481;53.750;10.570;2022-08-21T01:38:13;6.73;;;2.60;;
14778;SDS011;7481;53.750;10.570;2022-08-21T01:41:01;3.27;;;2.40;;
14778;SDS011;7481;53.750;10.570;2022-08-21T01:43:48;4.60;;;2.40;;
14778;SDS011;7481;53.750;10.570;2022-08-21T01:46:36;4.47;;;2.63;;
14778;SDS011;7481;53.750;10.570;2022-08-21T01:49:22;3.60;;;2.10;;
14778;SDS011;7481;53.750;10.570;2022-08-21T01:52:10;3.60;;;2.20;;
14778;SDS011;7481;53.750;10.570;2022-08-21T01:54:57;4.17;;;2.10;;
14778;SDS011;7481;53.750;10.570;2022-08-21T01:57:45;2.83;;;2.30;;
14778;SDS011;7481;53.750;10.570;2022-08-21T02:00:32;5.17;;;2.27;;
14778;SDS011;7481;53.750;10.570;2022-08-21T02:03:20;5.63;;;2.03;;
14778;SDS011;7481;53.750;10.570;2022-08-21T02:06:21;4.30;;;2.40;;
14778;SDS011;7481;53.750;10.570;2022-08-21T02:09:08;4.07;;;2.33;;
14778;SDS011;7481;53.750;10.570;2022-08-21T02:11:56;4.57;;;2.43;;
14778;SDS011;7481;53.750;10.570;2022-08-21T02:14:43;5.43;;;2.60;;
14778;SDS011;7481;53.750;10.570;2022-08-21T02:17:38;3.33;;;2.33;;
14778;SDS011;7481;53.750;10.570;2022-08-21T02:20:31;4.40;;;2.70;;
14778;SDS011;7481;53.750;10.570;2022-08-21T02:23:21;5.50;;;2.63;;
14778;SDS011;7481;53.750;10.570;2022-08-21T02:26:12;5.37;;;2.20;;
14778;SDS011;7481;53.750;10.570;2022-08-21T02:29:01;3.33;;;2.00;;
14778;SDS011;7481;53.750;10.570;2022-08-21T02:31:49;3.97;;;2.00;;
14778;SDS011;7481;53.750;10.570;2022-08-21T02:34:36;3.30;;;2.50;;
14778;SDS011;7481;53.750;10.570;2022-08-21T02:37:23;4.03;;;2.03;;
14778;SDS011;7481;53.750;10.570;2022-08-21T02:40:11;5.30;;;2.00;;
14778;SDS011;7481;53.750;10.570;2022-08-21T02:42:59;4.30;;;2.20;;
14778;SDS011;7481;53.750;10.570;2022-08-21T02:45:47;2.93;;;2.30;;
14778;SDS011;7481;53.750;10.570;2022-08-21T02:48:35;5.00;;;2.20;;
14778;SDS011;7481;53.750;10.570;2022-08-21T02:51:23;2.90;;;2.30;;
14778;SDS011;7481;53.750;10.570;2022-08-21T02:54:12;4.60;;;2.50;;
14778;SDS011;7481;53.750;10.570;2022-08-21T02:56:59;7.13;;;2.40;;
14778;SDS011;7481;53.750;10.570;2022-08-21T02:59:46;4.70;;;2.27;;
14778;SDS011;7481;53.750;10.570;2022-08-21T03:02:33;3.67;;;2.00;;
14778;SDS011;7481;53.750;10.570;2022-08-21T03:05:21;3.37;;;2.10;;
14778;SDS011;7481;53.750;10.570;2022-08-21T03:08:10;3.37;;;2.23;;
14778;SDS011;7481;53.750;10.570;2022-08-21T03:10:59;3.50;;;2.20;;
14778;SDS011;7481;53.750;10.570;2022-08-21T03:13:46;4.33;;;2.13;;
14778;SDS011;7481;53.750;10.570;2022-08-21T03:16:33;5.33;;;2.20;;
14778;SDS011;7481;53.750;10.570;2022-08-21T03:19:20;7.10;;;2.33;;
14778;SDS011;7481;53.750;10.570;2022-08-21T03:22:07;3.80;;;2.10;;
14778;SDS011;7481;53.750;10.570;2022-08-21T03:24:54;4.03;;;2.17;;
14778;SDS011;7481;53.750;10.570;2022-08-21T03:27:43;3.13;;;2.47;;
14778;SDS011;7481;53.750;10.570;2022-08-21T03:30:31;3.93;;;2.10;;
14778;SDS011;7481;53.750;10.570;2022-08-21T03:33:18;3.23;;;2.20;;
14778;SDS011;7481;53.750;10.570;2022-08-21T03:36:09;3.77;;;2.33;;
14778;SDS011;7481;53.750;10.570;2022-08-21T03:38:56;5.97;;;2.43;;
14778;SDS011;7481;53.750;10.570;2022-08-21T03:41:44;5.83;;;2.50;;
14778;SDS011;7481;53.750;10.570;2022-08-21T03:44:32;8.83;;;2.67;;
14778;SDS011;7481;53.750;10.570;2022-08-21T03:47:19;3.50;;;2.33;;
14778;SDS011;7481;53.750;10.570;2022-08-21T03:50:08;3.73;;;2.20;;
14778;SDS011;7481;53.750;10.570;2022-08-21T03:52:56;5.27;;;2.40;;
14778;SDS011;7481;53.750;10.570;2022-08-21T03:55:48;6.27;;;2.87;;
14778;SDS011;7481;53.750;10.570;2022-08-21T03:58:38;2.93;;;2.23;;
14778;SDS011;7481;53.750;10.570;2022-08-21T04:01:25;3.73;;;2.73;;
14778;SDS011;7481;53.750;10.570;2022-08-21T04:04:13;7.27;;;3.43;;
14778;SDS011;7481;53.750;10.570;2022-08-21T04:07:00;6.20;;;3.23;;
14778;SDS011;7481;53.750;10.570;2022-08-21T04:09:47;4.83;;;3.13;;
14778;SDS011;7481;53.750;10.570;2022-08-21T04:12:34;4.43;;;3.13;;
14778;SDS011;7481;53.750;10.570;2022-08-21T04:15:22;4.63;;;3.17;;
14778;SDS011;7481;53.750;10.570;2022-08-21T04:18:10;7.40;;;3.90;;
14778;SDS011;7481;53.750;10.570;2022-08-21T04:20:58;4.17;;;3.40;;
14778;SDS011;7481;53.750;10.570;2022-08-21T04:23:47;8.10;;;3.53;;
14778;SDS011;7481;53.750;10.570;2022-08-21T04:26:34;5.20;;;3.30;;
14778;SDS011;7481;53.750;10.570;2022-08-21T04:29:22;5.40;;;2.60;;
14778;SDS011;7481;53.750;10.570;2022-08-21T04:32:09;4.43;;;2.60;;
14778;SDS011;7481;53.750;10.570;2022-08-21T04:35:00;4.67;;;2.60;;
14778;SDS011;7481;53.750;10.570;2022-08-21T04:37:48;3.47;;;2.70;;
14778;SDS011;7481;53.750;10.570;2022-08-21T04:40:35;4.90;;;2.93;;
14778;SDS011;7481;53.750;10.570;2022-08-21T04:43:22;7.33;;;2.60;;
14778;SDS011;7481;53.750;10.570;2022-08-21T04:46:10;5.40;;;2.63;;
14778;SDS011;7481;53.750;10.570;2022-08-21T04:48:59;3.30;;;2.60;;
14778;SDS011;7481;53.750;10.570;2022-08-21T04:51:58;4.33;;;2.40;;
14778;SDS011;7481;53.750;10.570;2022-08-21T04:54:46;4.10;;;2.10;;
14778;SDS011;7481;53.750;10.570;2022-08-21T04:57:39;5.20;;;2.57;;
14778;SDS011;7481;53.750;10.570;2022-08-21T05:00:34;3.00;;;2.60;;
14778;SDS011;7481;53.750;10.570;2022-08-21T05:03:23;5.10;;;3.13;;
14778;SDS011;7481;53.750;10.570;2022-08-21T05:06:11;3.33;;;2.80;;
14778;SDS011;7481;53.750;10.570;2022-08-21T05:08:59;4.33;;;2.43;;
14778;SDS011;7481;53.750;10.570;2022-08-21T05:11:47;5.03;;;2.30;;
14778;SDS011;7481;53.750;10.570;2022-08-21T05:14:35;3.10;;;2.20;;
14778;SDS011;7481;53.750;10.570;2022-08-21T05:17:22;5.10;;;2.43;;
14778;SDS011;7481;53.750;10.570;2022-08-21T05:20:10;5.43;;;2.90;;
14778;SDS011;7481;53.750;10.570;2022-08-21T05:22:59;3.97;;;2.27;;
14778;SDS011;7481;53.750;10.570;2022-08-21T05:25:46;3.77;;;2.60;;
14778;SDS011;7481;53.750;10.570;2022-08-21T05:28:34;4.37;;;2.70;;
14778;SDS011;7481;53.750;10.570;2022-08-21T05:31:21;5.30;;;2.50;;
14778;SDS011;7481;53.750;10.570;2022-08-21T05:34:08;3.20;;;2.53;;
14778;SDS011;7481;53.750;10.570;2022-08-21T05:36:55;5.90;;;2.47;;
14778;SDS011;7481;53.750;10.570;2022-08-21T05:39:42;4.00;;;2.30;;
14778;SDS011;7481;53.750;10.570;2022-08-21T05:42:50;7.60;;;2.70;;
14778;SDS011;7481;53.750;10.570;2022-08-21T05:45:41;7.40;;;2.70;;
14778;SDS011;7481;53.750;10.570;2022-08-21T05:48:30;5.78;;;2.80;;
14778;SDS011;7481;53.750;10.570;2022-08-21T05:51:17;4.93;;;2.70;;
14778;SDS011;7481;53.750;10.570;2022-08-21T05:54:04;6.05;;;2.88;;
14778;SDS011;7481;53.750;10.570;2022-08-21T05:56:51;4.30;;;2.90;;
14778;SDS011;7481;53.750;10.570;2022-08-21T05:59:38;3.22;;;2.47;;
14778;SDS011;7481;53.750;10.570;2022-08-21T06:02:25;6.70;;;3.10;;
14778;SDS011;7481;53.750;10.570;2022-08-21T06:05:12;4.30;;;2.45;;
14778;SDS011;7481;53.750;10.570;2022-08-21T06:08:10;5.75;;;2.83;;
14778;SDS011;7481;53.750;10.570;2022-08-21T06:10:58;7.18;;;3.30;;
14778;SDS011;7481;53.750;10.570;2022-08-21T06:13:46;3.30;;;2.50;;
14778;SDS011;7481;53.750;10.570;2022-08-21T06:16:33;5.07;;;2.85;;
14778;SDS011;7481;53.750;10.570;2022-08-21T06:19:20;4.38;;;2.85;;
14778;SDS011;7481;53.750;10.570;2022-08-21T06:22:07;3.53;;;2.60;;
14778;SDS011;7481;53.750;10.570;2022-08-21T06:24:55;5.28;;;2.65;;
14778;SDS011;7481;53.750;10.570;2022-08-21T06:27:42;4.32;;;2.30;;
14778;SDS011;7481;53.750;10.570;2022-08-21T06:30:29;5.65;;;2.88;;
14778;SDS011;7481;53.750;10.570;2022-08-21T06:33:16;5.43;;;2.72;;
14778;SDS011;7481;53.750;10.570;2022-08-21T06:36:03;4.78;;;2.72;;
14778;SDS011;7481;53.750;10.570;2022-08-21T06:38:50;3.97;;;2.60;;
14778;SDS011;7481;53.750;10.570;2022-08-21T06:41:37;5.20;;;3.20;;
14778;SDS011;7481;53.750;10.570;2022-08-21T06:44:25;3.72;;;2.53;;
14778;SDS011;7481;53.750;10.570;2022-08-21T06:47:12;5.38;;;2.47;;
14778;SDS011;7481;53.750;10.570;2022-08-21T06:50:00;6.03;;;2.90;;
14778;SDS011;7481;53.750;10.570;2022-08-21T06:52:47;6.43;;;2.60;;
14778;SDS011;7481;53.750;10.570;2022-08-21T06:55:34;5.75;;;2.53;;
14778;SDS011;7481;53.750;10.570;2022-08-21T06:58:21;6.00;;;2.13;;
14778;SDS011;7481;53.750;10.570;2022-08-21T07:01:08;4.32;;;2.38;;
14778;SDS011;7481;53.750;10.570;2022-08-21T07:03:55;3.30;;;2.05;;
14778;SDS011;7481;53.750;10.570;2022-08-21T07:06:42;4.68;;;2.33;;
14778;SDS011;7481;53.750;10.570;2022-08-21T07:09:29;4.82;;;2.10;;
14778;SDS011;7481;53.750;10.570;2022-08-21T07:12:16;3.92;;;2.00;;
14778;SDS011;7481;53.750;10.570;2022-08-21T07:15:03;4.93;;;2.10;;
14778;SDS011;7481;53.750;10.570;2022-08-21T07:17:51;5.28;;;2.40;;
14778;SDS011;7481;53.750;10.570;2022-08-21T07:20:39;2.83;;;1.70;;
14778;SDS011;7481;53.750;10.570;2022-08-21T07:23:28;4.63;;;2.10;;
14778;SDS011;7481;53.750;10.570;2022-08-21T07:26:19;4.00;;;2.00;;
14778;SDS011;7481;53.750;10.570;2022-08-21T07:29:08;4.22;;;1.80;;
14778;SDS011;7481;53.750;10.570;2022-08-21T07:31:55;2.15;;;1.67;;
14778;SDS011;7481;53.750;10.570;2022-08-21T07:34:42;2.20;;;1.73;;
14778;SDS011;7481;53.750;10.570;2022-08-21T07:37:29;2.70;;;1.63;;
14778;SDS011;7481;53.750;10.570;2022-08-21T07:40:16;4.45;;;2.00;;
14778;SDS011;7481;53.750;10.570;2022-08-21T07:43:04;2.28;;;1.50;;
14778;SDS011;7481;53.750;10.570;2022-08-21T07:45:51;2.78;;;1.83;;
14778;SDS011;7481;53.750;10.570;2022-08-21T07:48:40;3.53;;;1.90;;
14778;SDS011;7481;53.750;10.570;2022-08-21T07:51:28;2.97;;;1.75;;
14778;SDS011;7481;53.750;10.570;2022-08-21T07:54:15;2.55;;;1.60;;
14778;SDS011;7481;53.750;10.570;2022-08-21T07:57:03;4.30;;;1.90;;
14778;SDS011;7481;53.750;10.570;2022-08-21T07:59:53;4.22;;;1.90;;
14778;SDS011;7481;53.750;10.570;2022-08-21T08:02:40;2.40;;;1.85;;
14778;SDS011;7481;53.750;10.570;2022-08-21T08:05:30;3.75;;;2.20;;
14778;SDS011;7481;53.750;10.570;2022-08-21T08:08:18;4.15;;;2.13;;
14778;SDS011;7481;53.750;10.570;2022-08-21T08:11:06;2.78;;;1.80;;
14778;SDS011;7481;53.750;10.570;2022-08-21T08:13:57;3.80;;;2.10;;
14778;SDS011;7481;53.750;10.570;2022-08-21T08:16:45;3.42;;;2.22;;
14778;SDS011;7481;53.750;10.570;2022-08-21T08:19:32;4.00;;;1.92;;
14778;SDS011;7481;53.750;10.570;2022-08-21T08:22:20;5.22;;;2.58;;
14778;SDS011;7481;53.750;10.570;2022-08-21T08:25:10;4.82;;;2.20;;
14778;SDS011;7481;53.750;10.570;2022-08-21T08:28:03;3.70;;;1.85;;
14778;SDS011;7481;53.750;10.570;2022-08-21T08:31:03;3.45;;;1.90;;
14778;SDS011;7481;53.750;10.570;2022-08-21T08:33:50;3.17;;;2.20;;
14778;SDS011;7481;53.750;10.570;2022-08-21T08:36:37;3.08;;;1.80;;
14778;SDS011;7481;53.750;10.570;2022-08-21T08:39:26;3.72;;;2.30;;
14778;SDS011;7481;53.750;10.570;2022-08-21T08:42:19;3.30;;;2.10;;
14778;SDS011;7481;53.750;10.570;2022-08-21T08:45:20;3.63;;;2.30;;
14778;SDS011;7481;53.750;10.570;2022-08-21T08:48:13;2.38;;;1.80;;
14778;SDS011;7481;53.750;10.570;2022-08-21T08:51:06;6.18;;;2.42;;
14778;SDS011;7481;53.750;10.570;2022-08-21T08:54:02;3.10;;;2.00;;
14778;SDS011;7481;53.750;10.570;2022-08-21T08:56:54;5.70;;;2.10;;
14778;SDS011;7481;53.750;10.570;2022-08-21T08:59:46;3.28;;;2.08;;
14778;SDS011;7481;53.750;10.570;2022-08-21T09:02:38;4.15;;;2.35;;
14778;SDS011;7481;53.750;10.570;2022-08-21T09:05:42;4.35;;;1.92;;
14778;SDS011;7481;53.750;10.570;2022-08-21T09:08:54;5.80;;;2.17;;
14778;SDS011;7481;53.750;10.570;2022-08-21T09:12:16;3.83;;;1.90;;
14778;SDS011;7481;53.750;10.570;2022-08-21T09:27:39;4.35;;;2.40;;
14778;SDS011;7481;53.750;10.570;2022-08-21T09:30:28;4.47;;;2.33;;
14778;SDS011;7481;53.750;10.570;2022-08-21T09:33:17;4.85;;;2.55;;
14778;SDS011;7481;53.750;10.570;2022-08-21T09:36:04;3.75;;;2.50;;
14778;SDS011;7481;53.750;10.570;2022-08-21T09:38:52;5.35;;;2.33;;
14778;SDS011;7481;53.750;10.570;2022-08-21T09:41:41;4.85;;;2.30;;
14778;SDS011;7481;53.750;10.570;2022-08-21T09:44:29;5.22;;;2.50;;
14778;SDS011;7481;53.750;10.570;2022-08-21T09:47:19;5.57;;;2.55;;
14778;SDS011;7481;53.750;10.570;2022-08-21T09:50:17;6.05;;;2.50;;
14778;SDS011;7481;53.750;10.570;2022-08-21T09:53:15;7.03;;;2.70;;
14778;SDS011;7481;53.750;10.570;2022-08-21T09:56:14;4.90;;;2.35;;
14778;SDS011;7481;53.750;10.570;2022-08-21T09:59:28;5.28;;;2.55;;
14778;SDS011;7481;53.750;10.570;2022-08-21T10:02:30;4.80;;;2.50;;
14778;SDS011;7481;53.750;10.570;2022-08-21T10:05:21;6.55;;;2.33;;
14778;SDS011;7481;53.750;10.570;2022-08-21T10:08:18;5.75;;;2.30;;
14778;SDS011;7481;53.750;10.570;2022-08-21T10:17:08;5.82;;;2.50;;
14778;SDS011;7481;53.750;10.570;2022-08-21T10:26:05;3.97;;;2.53;;
14778;SDS011;7481;53.750;10.570;2022-08-21T10:29:07;6.20;;;2.70;;
14778;SDS011;7481;53.750;10.570;2022-08-21T10:35:44;4.90;;;2.65;;
14778;SDS011;7481;53.750;10.570;2022-08-21T10:42:40;5.15;;;2.13;;
14778;SDS011;7481;53.750;10.570;2022-08-21T10:48:48;2.75;;;1.98;;
14778;SDS011;7481;53.750;10.570;2022-08-21T10:51:49;4.35;;;2.22;;
14778;SDS011;7481;53.750;10.570;2022-08-21T10:55:02;4.18;;;2.38;;
14778;SDS011;7481;53.750;10.570;2022-08-21T10:57:54;3.65;;;2.28;;
14778;SDS011;7481;53.750;10.570;2022-08-21T11:01:34;5.50;;;2.33;;
14778;SDS011;7481;53.750;10.570;2022-08-21T11:04:34;5.05;;;2.38;;
14778;SDS011;7481;53.750;10.570;2022-08-21T11:07:36;5.70;;;2.90;;
14778;SDS011;7481;53.750;10.570;2022-08-21T11:13:45;6.60;;;2.45;;
14778;SDS011;7481;53.750;10.570;2022-08-21T11:19:33;5.43;;;2.35;;
14778;SDS011;7481;53.750;10.570;2022-08-21T11:22:49;5.50;;;2.80;;
14778;SDS011;7481;53.750;10.570;2022-08-21T11:25:52;5.38;;;2.47;;
14778;SDS011;7481;53.750;10.570;2022-08-21T11:28:47;10.65;;;2.80;;
14778;SDS011;7481;53.750;10.570;2022-08-21T11:31:51;5.32;;;2.55;;
14778;SDS011;7481;53.750;10.570;2022-08-21T11:34:54;5.50;;;2.13;;
14778;SDS011;7481;53.750;10.570;2022-08-21T11:37:58;7.25;;;3.03;;
14778;SDS011;7481;53.750;10.570;2022-08-21T11:41:25;6.03;;;2.45;;
14778;SDS011;7481;53.750;10.570;2022-08-21T11:47:53;6.03;;;2.80;;
14778;SDS011;7481;53.750;10.570;2022-08-21T11:50:53;8.35;;;4.68;;
14778;SDS011;7481;53.750;10.570;2022-08-21T11:53:48;4.20;;;2.38;;
14778;SDS011;7481;53.750;10.570;2022-08-21T11:57:00;4.25;;;2.63;;
14778;SDS011;7481;53.750;10.570;2022-08-21T11:59:55;6.13;;;2.97;;
14778;SDS011;7481;53.750;10.570;2022-08-21T12:02:51;7.13;;;2.78;;
14778;SDS011;7481;53.750;10.570;2022-08-21T12:05:40;5.20;;;2.95;;
14778;SDS011;7481;53.750;10.570;2022-08-21T12:08:31;5.10;;;2.67;;
14778;SDS011;7481;53.750;10.570;2022-08-21T12:11:28;6.63;;;2.22;;
14778;SDS011;7481;53.750;10.570;2022-08-21T12:14:18;6.35;;;2.67;;
14778;SDS011;7481;53.750;10.570;2022-08-21T12:17:06;6.65;;;2.60;;
14778;SDS011;7481;53.750;10.570;2022-08-21T12:19:59;4.40;;;2.50;;
14778;SDS011;7481;53.750;10.570;2022-08-21T12:29:07;4.28;;;2.17;;
14778;SDS011;7481;53.750;10.570;2022-08-21T12:32:01;3.65;;;2.17;;
14778;SDS011;7481;53.750;10.570;2022-08-21T12:38:15;3.85;;;2.60;;
14778;SDS011;7481;53.750;10.570;2022-08-21T12:41:06;3.50;;;2.08;;
14778;SDS011;7481;53.750;10.570;2022-08-21T12:44:14;4.55;;;2.38;;
14778;SDS011;7481;53.750;10.570;2022-08-21T12:47:14;4.55;;;2.53;;
14778;SDS011;7481;53.750;10.570;2022-08-21T12:50:29;4.15;;;1.88;;
14778;SDS011;7481;53.750;10.570;2022-08-21T12:56:22;4.93;;;2.50;;
14778;SDS011;7481;53.750;10.570;2022-08-21T12:59:13;3.90;;;2.35;;
14778;SDS011;7481;53.750;10.570;2022-08-21T13:02:00;3.50;;;2.30;;
14778;SDS011;7481;53.750;10.570;2022-08-21T13:04:53;3.53;;;2.13;;
14778;SDS011;7481;53.750;10.570;2022-08-21T13:07:48;5.10;;;2.33;;
14778;SDS011;7481;53.750;10.570;2022-08-21T13:10:36;2.83;;;1.92;;
14778;SDS011;7481;53.750;10.570;2022-08-21T13:13:25;4.43;;;2.22;;
14778;SDS011;7481;53.750;10.570;2022-08-21T13:16:14;3.80;;;2.25;;
14778;SDS011;7481;53.750;10.570;2022-08-21T13:19:17;5.00;;;2.35;;
14778;SDS011;7481;53.750;10.570;2022-08-21T13:22:14;3.80;;;2.40;;
14778;SDS011;7481;53.750;10.570;2022-08-21T13:25:21;3.20;;;2.00;;
14778;SDS011;7481;53.750;10.570;2022-08-21T13:28:13;5.28;;;2.13;;
14778;SDS011;7481;53.750;10.570;2022-08-21T13:31:01;3.17;;;1.92;;
14778;SDS011;7481;53.750;10.570;2022-08-21T13:33:48;3.78;;;2.03;;
14778;SDS011;7481;53.750;10.570;2022-08-21T13:36:37;3.30;;;2.17;;
14778;SDS011;7481;53.750;10.570;2022-08-21T13:39:27;4.22;;;2.22;;
14778;SDS011;7481;53.750;10.570;2022-08-21T13:42:14;2.20;;;1.90;;
14778;SDS011;7481;53.750;10.570;2022-08-21T13:45:01;3.05;;;2.00;;
14778;SDS011;7481;53.750;10.570;2022-08-21T13:47:48;3.00;;;2.00;;
14778;SDS011;7481;53.750;10.570;2022-08-21T13:50:36;3.05;;;2.08;;
14778;SDS011;7481;53.750;10.570;2022-08-21T13:59:31;5.90;;;2.15;;
14778;SDS011;7481;53.750;10.570;2022-08-21T14:02:20;4.88;;;2.25;;
14778;SDS011;7481;53.750;10.570;2022-08-21T14:05:19;5.88;;;2.45;;
14778;SDS011;7481;53.750;10.570;2022-08-21T14:08:25;3.88;;;2.13;;
14778;SDS011;7481;53.750;10.570;2022-08-21T14:11:16;4.60;;;2.38;;
14778;SDS011;7481;53.750;10.570;2022-08-21T14:14:04;5.07;;;2.28;;
14778;SDS011;7481;53.750;10.570;2022-08-21T14:17:05;2.80;;;2.22;;
14778;SDS011;7481;53.750;10.570;2022-08-21T14:20:12;3.67;;;2.00;;
14778;SDS011;7481;53.750;10.570;2022-08-21T14:23:23;3.00;;;2.10;;
14778;SDS011;7481;53.750;10.570;2022-08-21T14:26:12;2.15;;;1.90;;
14778;SDS011;7481;53.750;10.570;2022-08-21T14:29:05;3.55;;;2.08;;
14778;SDS011;7481;53.750;10.570;2022-08-21T14:31:57;2.97;;;1.70;;
14778;SDS011;7481;53.750;10.570;2022-08-21T14:34:45;3.15;;;1.70;;
14778;SDS011;7481;53.750;10.570;2022-08-21T14:37:32;4.20;;;2.22;;
14778;SDS011;7481;53.750;10.570;2022-08-21T14:40:21;2.50;;;1.90;;
14778;SDS011;7481;53.750;10.570;2022-08-21T14:43:10;2.30;;;1.98;;
14778;SDS011;7481;53.750;10.570;2022-08-21T14:45:57;6.55;;;2.00;;
14778;SDS011;7481;53.750;10.570;2022-08-21T14:48:44;2.55;;;1.80;;
14778;SDS011;7481;53.750;10.570;2022-08-21T14:51:33;2.20;;;1.77;;
14778;SDS011;7481;53.750;10.570;2022-08-21T14:54:20;3.40;;;1.75;;
14778;SDS011;7481;53.750;10.570;2022-08-21T14:57:16;3.50;;;1.80;;
14778;SDS011;7481;53.750;10.570;2022-08-21T15:00:04;3.72;;;2.08;;
14778;SDS011;7481;53.750;10.570;2022-08-21T15:02:52;4.45;;;2.28;;
14778;SDS011;7481;53.750;10.570;2022-08-21T15:05:39;2.85;;;2.30;;
14778;SDS011;7481;53.750;10.570;2022-08-21T15:08:26;2.72;;;1.80;;
14778;SDS011;7481;53.750;10.570;2022-08-21T15:11:16;4.28;;;1.85;;
14778;SDS011;7481;53.750;10.570;2022-08-21T15:14:27;3.63;;;1.77;;
14778;SDS011;7481;53.750;10.570;2022-08-21T15:17:16;3.13;;;1.88;;
14778;SDS011;7481;53.750;10.570;2022-08-21T15:20:03;2.47;;;1.90;;
14778;SDS011;7481;53.750;10.570;2022-08-21T15:22:52;4.10;;;2.17;;
14778;SDS011;7481;53.750;10.570;2022-08-21T15:25:43;2.78;;;1.92;;
14778;SDS011;7481;53.750;10.570;2022-08-21T15:28:31;3.22;;;1.80;;
14778;SDS011;7481;53.750;10.570;2022-08-21T15:31:20;4.13;;;1.73;;
14778;SDS011;7481;53.750;10.570;2022-08-21T15:34:07;3.03;;;1.98;;
14778;SDS011;7481;53.750;10.570;2022-08-21T15:36:57;3.33;;;2.08;;
14778;SDS011;7481;53.750;10.570;2022-08-21T15:39:44;4.32;;;1.80;;
14778;SDS011;7481;53.750;10.570;2022-08-21T15:42:40;2.30;;;1.70;;
14778;SDS011;7481;53.750;10.570;2022-08-21T15:45:27;1.92;;;1.50;;
14778;SDS011;7481;53.750;10.570;2022-08-21T15:48:15;2.92;;;1.80;;
14778;SDS011;7481;53.750;10.570;2022-08-21T15:51:02;1.85;;;1.60;;
14778;SDS011;7481;53.750;10.570;2022-08-21T15:53:49;3.60;;;1.85;;
14778;SDS011;7481;53.750;10.570;2022-08-21T15:56:37;2.22;;;1.80;;
14778;SDS011;7481;53.750;10.570;2022-08-21T15:59:27;1.98;;;1.60;;
14778;SDS011;7481;53.750;10.570;2022-08-21T16:02:19;5.47;;;2.05;;
14778;SDS011;7481;53.750;10.570;2022-08-21T16:05:15;1.50;;;1.40;;
14778;SDS011;7481;53.750;10.570;2022-08-21T16:08:05;3.22;;;1.88;;
14778;SDS011;7481;53.750;10.570;2022-08-21T16:10:52;3.92;;;1.70;;
14778;SDS011;7481;53.750;10.570;2022-08-21T16:13:42;2.97;;;1.67;;
14778;SDS011;7481;53.750;10.570;2022-08-21T16:16:30;2.47;;;1.65;;
14778;SDS011;7481;53.750;10.570;2022-08-21T16:19:20;1.73;;;1.55;;
14778;SDS011;7481;53.750;10.570;2022-08-21T16:22:08;2.85;;;1.60;;
14778;SDS011;7481;53.750;10.570;2022-08-21T16:24:55;3.85;;;1.80;;
14778;SDS011;7481;53.750;10.570;2022-08-21T16:27:44;1.95;;;1.35;;
14778;SDS011;7481;53.750;10.570;2022-08-21T16:30:36;2.53;;;1.70;;
14778;SDS011;7481;53.750;10.570;2022-08-21T16:33:27;2.60;;;2.00;;
14778;SDS011;7481;53.750;10.570;2022-08-21T16:36:22;3.42;;;1.90;;
14778;SDS011;7481;53.750;10.570;2022-08-21T16:39:11;2.30;;;1.65;;
14778;SDS011;7481;53.750;10.570;2022-08-21T16:41:58;1.80;;;1.58;;
14778;SDS011;7481;53.750;10.570;2022-08-21T16:44:46;2.38;;;1.58;;
14778;SDS011;7481;53.750;10.570;2022-08-21T16:47:34;1.92;;;1.63;;
14778;SDS011;7481;53.750;10.570;2022-08-21T16:50:21;3.10;;;1.73;;
14778;SDS011;7481;53.750;10.570;2022-08-21T16:53:09;2.92;;;1.60;;
14778;SDS011;7481;53.750;10.570;2022-08-21T16:55:56;1.83;;;1.50;;
14778;SDS011;7481;53.750;10.570;2022-08-21T16:58:44;3.28;;;1.63;;
14778;SDS011;7481;53.750;10.570;2022-08-21T17:01:34;2.65;;;1.35;;
14778;SDS011;7481;53.750;10.570;2022-08-21T17:04:22;2.83;;;1.90;;
14778;SDS011;7481;53.750;10.570;2022-08-21T17:07:11;2.45;;;1.77;;
14778;SDS011;7481;53.750;10.570;2022-08-21T17:09:58;3.63;;;1.70;;
14778;SDS011;7481;53.750;10.570;2022-08-21T17:12:45;1.88;;;1.48;;
14778;SDS011;7481;53.750;10.570;2022-08-21T17:15:41;3.08;;;1.55;;
14778;SDS011;7481;53.750;10.570;2022-08-21T17:18:28;2.90;;;1.90;;
14778;SDS011;7481;53.750;10.570;2022-08-21T17:21:15;4.00;;;2.20;;
14778;SDS011;7481;53.750;10.570;2022-08-21T17:24:04;2.20;;;1.98;;
14778;SDS011;7481;53.750;10.570;2022-08-21T17:26:52;1.80;;;1.50;;
14778;SDS011;7481;53.750;10.570;2022-08-21T17:29:41;2.20;;;1.50;;
14778;SDS011;7481;53.750;10.570;2022-08-21T17:32:28;3.25;;;1.90;;
14778;SDS011;7481;53.750;10.570;2022-08-21T17:35:16;4.13;;;1.80;;
14778;SDS011;7481;53.750;10.570;2022-08-21T17:38:04;3.88;;;1.90;;
14778;SDS011;7481;53.750;10.570;2022-08-21T17:40:51;3.78;;;2.15;;
14778;SDS011;7481;53.750;10.570;2022-08-21T17:43:38;2.88;;;1.80;;
14778;SDS011;7481;53.750;10.570;2022-08-21T17:46:26;2.30;;;1.67;;
14778;SDS011;7481;53.750;10.570;2022-08-21T17:49:14;3.30;;;1.50;;
14778;SDS011;7481;53.750;10.570;2022-08-21T17:52:01;3.80;;;2.10;;
14778;SDS011;7481;53.750;10.570;2022-08-21T17:54:49;3.13;;;1.60;;
14778;SDS011;7481;53.750;10.570;2022-08-21T17:57:36;2.33;;;1.73;;
14778;SDS011;7481;53.750;10.570;2022-08-21T18:00:25;4.03;;;1.80;;
14778;SDS011;7481;53.750;10.570;2022-08-21T18:03:14;5.28;;;1.75;;
14778;SDS011;7481;53.750;10.570;2022-08-21T18:06:04;2.45;;;1.60;;
14778;SDS011;7481;53.750;10.570;2022-08-21T18:08:51;2.67;;;1.80;;
14778;SDS011;7481;53.750;10.570;2022-08-21T18:11:39;5.53;;;1.92;;
14778;SDS011;7481;53.750;10.570;2022-08-21T18:14:29;3.65;;;1.90;;
14778;SDS011;7481;53.750;10.570;2022-08-21T18:17:20;6.20;;;2.10;;